Newtown Square, Pennsylvania
Current Conditions -  °F | °C
As of 7:28 AM on Tuesday 27 Jan 2015 (Local Time) from KPHL Reporting Station
Light Snow Light Snow  
Wind Chill: 16°   Ceiling: 2700
Heat Index: 27°   Visibility: 1.7mi
Dew Point: 22°   Wind: 13mph
Humidity: 81%   Direction: 330°NNW
Pressure: 29.74"   Gusts: NA
Location:  39.99°N, 75.4°W
Report Text: KPHL 271228Z 33011KT 1 3/4SM -SN BKN027 OVC044 M03/M06 A2974 RMK AO2 P0000 T10281056
Loading
Personal Weather Stations






























Interactive Weather Map New forecast layout! Learn more

10-Day Weather Forecast

Advertisements
Track Severe Weather on mobile